Alba, Missouri
Current Conditions -  °F | °C
As of 8:53 PM on Thursday 18 Dec 2014 (Local Time) from KJLN Reporting Station
Haze Haze  
Wind Chill:   Ceiling: 300
Heat Index:   Visibility: 3mi
Dew Point:   Wind: 3mph
Humidity: 96%   Direction: 10°N
Pressure: 30.23"   Gusts: NA
Location:  37.24°N, 94.42°W
Report Text: KJLN 190253Z 01003KT 3SM BR OVC003 03/02 A3023 RMK AO2 SLP242 T00280022 51012
Loading
Personal Weather Stations






























Interactive Weather Map New forecast layout! Learn more

10-Day Weather Forecast

Advertisements
Track Severe Weather on mobile